Alton, Alabama
Current Conditions -  °F | °C
As of 3:53 PM on Thursday 23 Oct 2014 (Local Time) from KBHM Reporting Station
Broken Clouds Broken Clouds  
Wind Chill: 68°   Ceiling: 25000
Heat Index: 68°   Visibility: 10mi
Dew Point: 42°   Wind: 8mph
Humidity: 39%   Direction: 10°N
Pressure: 30.07"   Gusts: NA
Location:  33.58°N, 86.64°W
Report Text: KBHM 232053Z 01007KT 10SM BKN250 20/06 A3007 RMK AO2 SLP180 T02000056 56020
Loading
Personal Weather Stations






























Interactive Weather Map New forecast layout! Learn more

10-Day Weather Forecast

Advertisements
Track Severe Weather on mobile